createdAt,value
2019-03-23T00:00:02.155Z,11.68
2019-03-23T00:01:13.996Z,11.25
2019-03-23T00:02:19.972Z,11.28
2019-03-23T00:03:25.642Z,11.90
2019-03-23T00:04:31.228Z,10.28
2019-03-23T00:05:36.918Z,11.35
2019-03-23T00:06:42.509Z,10.35
2019-03-23T00:07:48.117Z,10.38
2019-03-23T00:08:53.806Z,11.43
2019-03-23T00:09:59.642Z,10.18
2019-03-23T00:11:05.360Z,10.50
2019-03-23T00:12:11.317Z,9.40
2019-03-23T00:13:16.938Z,9.40
2019-03-23T00:14:22.536Z,9.73
2019-03-23T00:15:28.371Z,9.73
2019-03-23T00:16:34.023Z,9.75
2019-03-23T00:17:39.618Z,9.95
2019-03-23T00:18:45.220Z,9.53
2019-03-23T00:19:50.938Z,9.30
2019-03-23T00:20:56.873Z,9.25
2019-03-23T00:22:02.664Z,9.33
2019-03-23T00:23:08.444Z,8.75
2019-03-23T00:24:14.195Z,9.40
2019-03-23T00:25:19.961Z,10.45
2019-03-23T00:26:25.673Z,9.30
2019-03-23T00:27:31.722Z,8.55
2019-03-23T00:28:37.618Z,9.00
2019-03-23T00:29:43.240Z,8.25
2019-03-23T00:30:49.147Z,9.25
2019-03-23T00:31:55.045Z,8.55
2019-03-23T00:33:00.807Z,9.15
2019-03-23T00:34:06.605Z,8.53
2019-03-23T00:35:13.085Z,8.45
2019-03-23T00:36:18.998Z,8.95
2019-03-23T00:37:24.774Z,9.70
2019-03-23T00:38:30.334Z,8.95
2019-03-23T00:39:36.094Z,8.30
2019-03-23T00:40:41.569Z,9.35
2019-03-23T00:41:46.970Z,10.90
2019-03-23T00:42:53.756Z,12.60
2019-03-23T00:43:59.338Z,10.32
2019-03-23T00:45:05.388Z,14.00
2019-03-23T00:46:11.167Z,14.60
2019-03-23T00:47:16.918Z,16.65
2019-03-23T00:48:22.775Z,17.73
2019-03-23T00:49:28.132Z,18.60
2019-03-23T00:50:33.657Z,16.20
2019-03-23T00:51:39.220Z,16.02
2019-03-23T00:52:44.660Z,17.60
2019-03-23T00:53:50.307Z,16.55
2019-03-23T00:54:55.863Z,17.32
2019-03-23T00:56:01.616Z,17.15
2019-03-23T00:57:07.049Z,19.85
2019-03-23T00:58:12.883Z,17.75
2019-03-23T00:59:18.632Z,18.27
2019-03-23T01:00:24.259Z,18.67
2019-03-23T01:01:29.765Z,18.40
2019-03-23T01:02:35.293Z,18.52
2019-03-23T01:03:41.023Z,17.42
2019-03-23T01:04:46.780Z,18.30
2019-03-23T01:05:52.580Z,18.92
2019-03-23T01:06:58.094Z,18.70
2019-03-23T01:08:03.754Z,18.20
2019-03-23T01:09:10.052Z,18.27
2019-03-23T01:10:15.932Z,18.17
2019-03-23T01:11:21.750Z,18.70
2019-03-23T01:12:27.395Z,16.75
2019-03-23T01:13:32.940Z,16.70
2019-03-23T01:14:38.635Z,17.90
2019-03-23T01:15:44.435Z,17.02
2019-03-23T01:16:50.140Z,17.10
2019-03-23T01:17:55.782Z,16.75
2019-03-23T01:19:01.273Z,18.23
2019-03-23T01:20:08.289Z,16.95
2019-03-23T01:21:13.954Z,17.12
2019-03-23T01:22:19.496Z,17.00
2019-03-23T01:23:25.307Z,16.95
2019-03-23T01:24:31.158Z,17.05
2019-03-23T01:25:36.777Z,16.42
2019-03-23T01:26:42.477Z,17.15
2019-03-23T01:27:47.929Z,17.42
2019-03-23T01:28:53.457Z,17.17
2019-03-23T01:29:59.099Z,16.80
2019-03-23T01:31:04.604Z,15.78
2019-03-23T01:32:10.028Z,16.70
2019-03-23T01:33:15.665Z,16.07
2019-03-23T01:34:21.109Z,16.15
2019-03-23T01:35:26.433Z,17.17
2019-03-23T01:36:31.977Z,18.00
2019-03-23T01:37:37.722Z,18.12
2019-03-23T01:38:43.261Z,18.32
2019-03-23T01:39:48.844Z,17.52
2019-03-23T01:40:54.535Z,18.32
2019-03-23T01:41:59.892Z,15.88
2019-03-23T01:43:05.564Z,15.25
2019-03-23T01:44:11.192Z,15.50
2019-03-23T01:45:16.760Z,15.13
2019-03-23T01:46:22.255Z,15.20
2019-03-23T01:47:27.717Z,15.55
2019-03-23T01:48:33.330Z,15.35
2019-03-23T01:49:39.018Z,15.65
2019-03-23T01:50:44.567Z,14.75
2019-03-23T01:51:50.412Z,14.83
2019-03-23T01:52:55.936Z,14.53
2019-03-23T01:54:01.381Z,15.10
2019-03-23T01:55:07.248Z,15.83
2019-03-23T01:56:12.842Z,14.10
2019-03-23T01:57:18.488Z,14.73
2019-03-23T01:58:24.190Z,15.30
2019-03-23T01:59:29.727Z,15.80
2019-03-23T02:00:35.125Z,15.45
2019-03-23T02:01:40.781Z,14.28
2019-03-23T02:02:47.567Z,14.68
2019-03-23T02:03:53.156Z,15.28
2019-03-23T02:04:58.514Z,15.23
2019-03-23T02:06:03.988Z,15.93
2019-03-23T02:07:13.831Z,15.98
2019-03-23T02:08:16.744Z,15.03
2019-03-23T02:09:22.065Z,15.93
2019-03-23T02:10:27.568Z,15.05
2019-03-23T02:11:33.220Z,15.83
2019-03-23T02:12:38.615Z,15.75
2019-03-23T02:13:44.136Z,15.85
2019-03-23T02:14:49.628Z,16.60
2019-03-23T02:15:55.141Z,15.93
2019-03-23T02:17:00.676Z,15.80
2019-03-23T02:18:06.180Z,15.32
2019-03-23T02:19:11.648Z,16.57
2019-03-23T02:20:17.246Z,15.68
2019-03-23T02:21:22.978Z,15.13
2019-03-23T02:22:28.502Z,15.72
2019-03-23T02:23:33.872Z,15.18
2019-03-23T02:24:39.296Z,15.50
2019-03-23T02:25:44.764Z,15.30
2019-03-23T02:26:50.255Z,15.98
2019-03-23T02:27:55.724Z,16.32
2019-03-23T02:29:01.227Z,16.67
2019-03-23T02:30:07.256Z,16.55
2019-03-23T02:31:12.694Z,17.32
2019-03-23T02:32:18.261Z,16.10
2019-03-23T02:33:23.613Z,17.10
2019-03-23T02:34:29.168Z,17.17
2019-03-23T02:35:34.703Z,16.62
2019-03-23T02:36:40.266Z,17.62
2019-03-23T02:37:45.611Z,16.95
2019-03-23T02:38:51.202Z,16.57
2019-03-23T02:39:56.665Z,17.02
2019-03-23T02:41:02.192Z,15.83
2019-03-23T02:42:07.917Z,17.75
2019-03-23T02:43:13.461Z,16.37
2019-03-23T02:44:18.885Z,16.00
2019-03-23T02:45:24.270Z,16.32
2019-03-23T02:46:29.654Z,15.98
2019-03-23T02:47:35.055Z,16.77
2019-03-23T02:48:40.594Z,17.10
2019-03-23T02:49:46.126Z,16.70
2019-03-23T02:50:51.529Z,17.40
2019-03-23T02:51:56.972Z,17.52
2019-03-23T02:53:02.513Z,17.90
2019-03-23T02:54:08.151Z,17.45
2019-03-23T02:55:13.776Z,18.85
2019-03-23T02:56:19.357Z,17.92
2019-03-23T02:57:25.094Z,18.82
2019-03-23T02:58:30.894Z,17.40
2019-03-23T02:59:36.606Z,16.90
2019-03-23T03:00:43.064Z,17.37
2019-03-23T03:01:48.657Z,18.07
2019-03-23T03:02:54.155Z,18.40
2019-03-23T03:03:59.509Z,17.20
2019-03-23T03:05:08.884Z,18.45
2019-03-23T03:06:14.480Z,18.25
2019-03-23T03:07:20.002Z,18.12
2019-03-23T03:08:25.438Z,16.40
2019-03-23T03:09:30.886Z,17.25
2019-03-23T03:10:42.959Z,18.02
2019-03-23T03:11:48.480Z,18.12
2019-03-23T03:12:54.074Z,17.65
2019-03-23T03:13:59.429Z,18.20
2019-03-23T03:15:05.242Z,17.07
2019-03-23T03:16:10.670Z,17.42
2019-03-23T03:17:16.194Z,17.10
2019-03-23T03:18:21.565Z,17.87
2019-03-23T03:19:30.113Z,17.40
2019-03-23T03:20:35.671Z,17.75
2019-03-23T03:21:41.051Z,18.23
2019-03-23T03:22:46.562Z,19.25
2019-03-23T03:23:52.037Z,18.60
2019-03-23T03:24:57.509Z,19.07
2019-03-23T03:26:02.839Z,18.50
2019-03-23T03:27:08.369Z,20.08
2019-03-23T03:28:13.866Z,20.62
2019-03-23T03:29:19.397Z,20.85
2019-03-23T03:30:24.786Z,19.67
2019-03-23T03:31:30.260Z,21.23
2019-03-23T03:32:35.901Z,21.45
2019-03-23T03:33:41.220Z,20.85
2019-03-23T03:34:46.807Z,20.68
2019-03-23T03:35:52.219Z,21.20
2019-03-23T03:36:57.663Z,20.70
2019-03-23T03:38:03.092Z,20.97
2019-03-23T03:39:09.470Z,20.55
2019-03-23T03:40:15.199Z,20.08
2019-03-23T03:41:20.571Z,20.17
2019-03-23T03:42:26.443Z,20.48
2019-03-23T03:43:32.074Z,19.92
2019-03-23T03:44:37.482Z,20.82
2019-03-23T03:45:42.967Z,19.15
2019-03-23T03:46:48.496Z,20.52
2019-03-23T03:47:54.082Z,21.10
2019-03-23T03:49:11.869Z,20.80
2019-03-23T03:50:06.955Z,20.10
2019-03-23T03:51:12.364Z,20.37
2019-03-23T03:52:17.969Z,20.90
2019-03-23T03:53:23.401Z,21.87
2019-03-23T03:54:28.875Z,19.85
2019-03-23T03:55:34.205Z,19.85
2019-03-23T03:56:39.729Z,20.60
2019-03-23T03:57:46.276Z,20.68
2019-03-23T03:58:51.630Z,20.55
2019-03-23T03:59:57.087Z,19.80
2019-03-23T04:01:03.660Z,19.48
2019-03-23T04:02:08.995Z,19.98
2019-03-23T04:03:14.446Z,20.23
2019-03-23T04:04:19.823Z,19.07
2019-03-23T04:05:25.427Z,19.48
2019-03-23T04:06:30.913Z,19.45
2019-03-23T04:07:36.279Z,19.00
2019-03-23T04:08:41.792Z,18.45
2019-03-23T04:09:47.406Z,18.23
2019-03-23T04:10:52.898Z,19.45
2019-03-23T04:11:58.259Z,18.67
2019-03-23T04:13:03.809Z,18.05
2019-03-23T04:14:09.319Z,18.55
2019-03-23T04:15:14.809Z,17.67
2019-03-23T04:16:20.401Z,19.17
2019-03-23T04:17:25.871Z,19.23
2019-03-23T04:18:31.245Z,17.77
2019-03-23T04:19:36.862Z,19.20
2019-03-23T04:20:42.208Z,17.98
2019-03-23T04:21:47.726Z,18.00
2019-03-23T04:22:53.036Z,18.80
2019-03-23T04:23:58.560Z,17.67
2019-03-23T04:25:04.148Z,18.60
2019-03-23T04:26:09.492Z,17.82
2019-03-23T04:27:14.940Z,16.75
2019-03-23T04:28:20.449Z,17.85
2019-03-23T04:29:25.905Z,18.32
2019-03-23T04:30:31.251Z,17.85
2019-03-23T04:31:36.734Z,18.15
2019-03-23T04:32:42.052Z,18.45
2019-03-23T04:33:47.518Z,18.00
2019-03-23T04:34:52.925Z,18.25
2019-03-23T04:35:58.388Z,19.42
2019-03-23T04:37:03.834Z,18.30
2019-03-23T04:38:09.285Z,18.87
2019-03-23T04:39:14.652Z,18.55
2019-03-23T04:40:20.305Z,18.05
2019-03-23T04:41:25.926Z,18.65
2019-03-23T04:42:31.632Z,17.48
2019-03-23T04:43:37.116Z,19.27
2019-03-23T04:44:42.644Z,18.50
2019-03-23T04:45:48.189Z,18.82
2019-03-23T04:46:53.611Z,20.00
2019-03-23T04:47:59.264Z,19.50
2019-03-23T04:49:04.928Z,19.90
2019-03-23T04:50:11.278Z,20.08
2019-03-23T04:51:16.778Z,20.20
2019-03-23T04:52:22.468Z,19.87
2019-03-23T04:53:27.885Z,20.75
2019-03-23T04:54:33.308Z,20.17
2019-03-23T04:55:38.805Z,20.70
2019-03-23T04:56:44.360Z,20.45
2019-03-23T04:57:49.869Z,21.52
2019-03-23T04:58:55.366Z,20.65
2019-03-23T05:00:00.861Z,19.75
2019-03-23T05:01:06.372Z,21.95
2019-03-23T05:02:12.076Z,21.73
2019-03-23T05:03:17.526Z,21.42
2019-03-23T05:04:23.059Z,21.90
2019-03-23T05:05:28.361Z,22.90
2019-03-23T05:06:33.756Z,21.07
2019-03-23T05:07:39.191Z,20.45
2019-03-23T05:08:44.575Z,21.70
2019-03-23T05:09:50.036Z,21.95
2019-03-23T05:10:55.344Z,21.60
2019-03-23T05:12:00.732Z,21.33
2019-03-23T05:13:06.120Z,22.65
2019-03-23T05:14:11.653Z,22.65
2019-03-23T05:15:17.347Z,20.82
2019-03-23T05:16:22.967Z,22.30
2019-03-23T05:17:28.639Z,21.68
2019-03-23T05:18:34.172Z,22.17
2019-03-23T05:19:39.621Z,22.67
2019-03-23T05:20:45.300Z,22.22
2019-03-23T05:21:50.857Z,22.35
2019-03-23T05:22:56.457Z,22.27
2019-03-23T05:24:02.005Z,21.68
2019-03-23T05:25:09.393Z,21.48
2019-03-23T05:26:14.963Z,21.93
2019-03-23T05:27:20.286Z,21.27
2019-03-23T05:28:25.833Z,21.17
2019-03-23T05:29:31.242Z,23.70
2019-03-23T05:30:36.665Z,20.88
2019-03-23T05:31:42.080Z,23.12
2019-03-23T05:32:47.467Z,22.82
2019-03-23T05:33:54.096Z,22.05
2019-03-23T05:34:59.767Z,22.50
2019-03-23T05:36:05.185Z,21.65
2019-03-23T05:37:13.767Z,21.95
2019-03-23T05:38:19.208Z,21.65
2019-03-23T05:39:25.042Z,22.10
2019-03-23T05:40:30.479Z,22.98
2019-03-23T05:41:36.016Z,23.45
2019-03-23T05:42:41.643Z,21.73
2019-03-23T05:43:47.294Z,22.75
2019-03-23T05:44:52.912Z,23.77
2019-03-23T05:45:58.566Z,23.90
2019-03-23T05:47:04.315Z,22.20
2019-03-23T05:48:09.835Z,22.37
2019-03-23T05:49:15.453Z,23.27
2019-03-23T05:50:21.145Z,22.07
2019-03-23T05:51:26.571Z,22.17
2019-03-23T05:52:32.057Z,22.93
2019-03-23T05:53:37.514Z,23.77
2019-03-23T05:54:43.012Z,23.57
2019-03-23T05:55:48.457Z,22.70
2019-03-23T05:56:53.989Z,23.18
2019-03-23T05:57:59.589Z,23.27
2019-03-23T05:59:05.072Z,23.15
2019-03-23T06:00:12.552Z,23.47
2019-03-23T06:01:18.104Z,23.10
2019-03-23T06:02:23.512Z,23.38
2019-03-23T06:03:28.941Z,24.30
2019-03-23T06:04:34.434Z,23.10
2019-03-23T06:05:39.853Z,24.00
2019-03-23T06:06:45.264Z,23.40
2019-03-23T06:07:50.800Z,23.45
2019-03-23T06:08:56.144Z,24.98
2019-03-23T06:10:01.561Z,23.27
2019-03-23T06:11:07.069Z,24.00
2019-03-23T06:12:12.435Z,23.98
2019-03-23T06:13:17.841Z,22.37
2019-03-23T06:14:23.227Z,22.62
2019-03-23T06:15:28.670Z,24.00
2019-03-23T06:16:34.195Z,21.97
2019-03-23T06:17:39.631Z,24.52
2019-03-23T06:18:45.038Z,25.12
2019-03-23T06:19:50.505Z,23.20
2019-03-23T06:20:55.926Z,22.60
2019-03-23T06:22:01.503Z,24.23
2019-03-23T06:23:06.962Z,24.30
2019-03-23T06:24:12.467Z,24.37
2019-03-23T06:25:17.878Z,23.20
2019-03-23T06:26:23.264Z,22.73
2019-03-23T06:27:28.651Z,22.60
2019-03-23T06:28:34.082Z,23.62
2019-03-23T06:29:39.708Z,23.20
2019-03-23T06:30:45.063Z,22.62
2019-03-23T06:31:50.463Z,23.98
2019-03-23T06:32:56.153Z,25.27
2019-03-23T06:34:01.556Z,23.45
2019-03-23T06:35:08.244Z,23.02
2019-03-23T06:36:13.832Z,24.40
2019-03-23T06:37:19.275Z,23.73
2019-03-23T06:38:24.832Z,23.05
2019-03-23T06:39:30.254Z,22.70
2019-03-23T06:40:35.945Z,23.90
2019-03-23T06:41:41.468Z,24.02
2019-03-23T06:42:46.801Z,23.18
2019-03-23T06:43:52.322Z,22.82
2019-03-23T06:44:58.272Z,21.12
2019-03-23T06:46:03.799Z,23.22
2019-03-23T06:47:09.323Z,23.22
2019-03-23T06:48:14.770Z,23.15
2019-03-23T06:49:20.238Z,23.27
2019-03-23T06:50:25.588Z,23.07
2019-03-23T06:51:31.093Z,21.80
2019-03-23T06:52:36.610Z,22.42
2019-03-23T06:53:41.976Z,22.13
2019-03-23T06:54:47.316Z,22.65
2019-03-23T06:55:52.812Z,21.87
2019-03-23T06:56:58.170Z,20.92
2019-03-23T06:58:03.547Z,22.45
2019-03-23T06:59:08.848Z,22.40
2019-03-23T07:00:14.686Z,21.35
2019-03-23T07:01:20.129Z,21.62
2019-03-23T07:02:25.522Z,21.17
2019-03-23T07:03:31.795Z,21.97
2019-03-23T07:04:37.158Z,22.65
2019-03-23T07:05:42.571Z,20.12
2019-03-23T07:06:47.890Z,23.07
2019-03-23T07:07:53.277Z,22.45
2019-03-23T07:08:58.608Z,22.62
2019-03-23T07:10:04.192Z,23.22
2019-03-23T07:11:09.752Z,22.60
2019-03-23T07:12:15.160Z,23.50
2019-03-23T07:13:20.748Z,23.27
2019-03-23T07:14:26.332Z,23.15
2019-03-23T07:15:31.857Z,22.98
2019-03-23T07:16:37.266Z,22.80
2019-03-23T07:17:42.773Z,23.45
2019-03-23T07:18:48.192Z,23.85
2019-03-23T07:19:53.660Z,23.70
2019-03-23T07:20:59.032Z,23.67
2019-03-23T07:22:04.386Z,23.85
2019-03-23T07:23:09.698Z,22.98
2019-03-23T07:24:15.024Z,22.17
2019-03-23T07:25:20.408Z,22.95
2019-03-23T07:26:25.716Z,22.45
2019-03-23T07:27:30.968Z,21.57
2019-03-23T07:28:36.257Z,22.62
2019-03-23T07:29:41.537Z,21.05
2019-03-23T07:30:46.932Z,22.87
2019-03-23T07:31:52.286Z,23.15
2019-03-23T07:32:57.573Z,23.02
2019-03-23T07:34:02.821Z,22.90
2019-03-23T07:35:08.509Z,23.35
2019-03-23T07:36:13.825Z,25.35
2019-03-23T07:37:19.126Z,24.63
2019-03-23T07:38:24.399Z,22.80
2019-03-23T07:39:30.594Z,23.20
2019-03-23T07:40:36.011Z,23.77
2019-03-23T07:41:41.321Z,22.67
2019-03-23T07:42:46.800Z,23.80
2019-03-23T07:43:52.105Z,23.80
2019-03-23T07:44:57.426Z,26.33
2019-03-23T07:46:02.747Z,23.75
2019-03-23T07:47:08.240Z,24.98
2019-03-23T07:48:13.519Z,23.00
2019-03-23T07:49:19.066Z,25.82
2019-03-23T07:50:24.928Z,24.85
2019-03-23T07:51:30.430Z,23.27
2019-03-23T07:52:35.927Z,23.50
2019-03-23T07:53:41.386Z,23.27
2019-03-23T07:54:47.352Z,25.00
2019-03-23T07:55:52.779Z,25.27
2019-03-23T07:56:58.278Z,24.20
2019-03-23T07:58:03.641Z,24.52
2019-03-23T07:59:08.984Z,25.27
2019-03-23T08:00:16.594Z,23.83
2019-03-23T08:01:21.956Z,22.10
2019-03-23T08:02:27.220Z,23.30
2019-03-23T08:03:32.531Z,23.35
2019-03-23T08:04:38.813Z,22.35
2019-03-23T08:05:44.155Z,23.12
2019-03-23T08:06:49.444Z,22.93
2019-03-23T08:07:54.786Z,24.40
2019-03-23T08:09:00.280Z,22.87
2019-03-23T08:10:06.010Z,24.40
2019-03-23T08:11:11.549Z,25.48
2019-03-23T08:12:16.803Z,24.65
2019-03-23T08:13:22.206Z,24.32
2019-03-23T08:14:27.465Z,24.23
2019-03-23T08:15:32.820Z,25.20
2019-03-23T08:16:38.120Z,23.55
2019-03-23T08:17:43.435Z,23.27
2019-03-23T08:18:48.689Z,23.90
2019-03-23T08:19:54.007Z,23.52
2019-03-23T08:20:59.353Z,23.25
2019-03-23T08:22:04.830Z,25.12
2019-03-23T08:23:10.123Z,25.52
2019-03-23T08:24:15.624Z,25.88
2019-03-23T08:25:21.020Z,24.95
2019-03-23T08:26:26.591Z,24.25
2019-03-23T08:27:32.073Z,24.40
2019-03-23T08:28:37.591Z,24.30
2019-03-23T08:29:43.033Z,24.57
2019-03-23T08:30:48.517Z,24.52
2019-03-23T08:31:54.581Z,24.80
2019-03-23T08:33:00.192Z,25.17
2019-03-23T08:34:05.811Z,24.12
2019-03-23T08:35:11.529Z,24.32
2019-03-23T08:36:17.089Z,25.20
2019-03-23T08:37:22.627Z,25.23
2019-03-23T08:38:28.080Z,24.85
2019-03-23T08:39:33.581Z,24.23
2019-03-23T08:40:39.126Z,24.15
2019-03-23T08:41:44.541Z,23.07
2019-03-23T08:42:50.024Z,24.35
2019-03-23T08:43:55.572Z,26.05
2019-03-23T08:45:01.152Z,26.62
2019-03-23T08:46:06.620Z,24.87
2019-03-23T08:47:12.143Z,23.50
2019-03-23T08:48:17.591Z,27.25
2019-03-23T08:49:23.116Z,26.20
2019-03-23T08:50:29.080Z,27.70
2019-03-23T08:51:34.631Z,26.27
2019-03-23T08:52:40.107Z,25.05
2019-03-23T08:53:45.917Z,24.43
2019-03-23T08:54:56.406Z,26.73
2019-03-23T08:56:02.071Z,25.10
2019-03-23T08:57:07.785Z,25.97
2019-03-23T08:58:13.223Z,24.87
2019-03-23T08:59:18.699Z,24.50
2019-03-23T09:00:24.233Z,25.07
2019-03-23T09:01:29.674Z,24.40
2019-03-23T09:02:35.108Z,25.15
2019-03-23T09:03:40.484Z,23.13
2019-03-23T09:04:46.986Z,23.87
2019-03-23T09:05:52.501Z,24.47
2019-03-23T09:06:58.276Z,23.80
2019-03-23T09:08:03.755Z,24.47
2019-03-23T09:09:09.320Z,23.67
2019-03-23T09:10:14.868Z,23.30
2019-03-23T09:11:20.905Z,23.70
2019-03-23T09:12:26.511Z,23.70
2019-03-23T09:13:40.250Z,23.67
2019-03-23T09:14:39.231Z,24.18
2019-03-23T09:15:44.711Z,23.17
2019-03-23T09:16:50.282Z,24.87
2019-03-23T09:17:55.724Z,23.07
2019-03-23T09:19:01.343Z,24.60
2019-03-23T09:20:07.869Z,24.63
2019-03-23T09:21:13.278Z,25.50
2019-03-23T09:22:18.874Z,25.10
2019-03-23T09:23:28.292Z,25.07
2019-03-23T09:24:33.674Z,24.50
2019-03-23T09:25:39.101Z,24.83
2019-03-23T09:26:44.509Z,24.13
2019-03-23T09:27:49.919Z,24.13
2019-03-23T09:28:55.328Z,24.73
2019-03-23T09:30:00.817Z,24.47
2019-03-23T09:31:06.125Z,23.47
2019-03-23T09:32:11.905Z,23.57
2019-03-23T09:33:17.199Z,24.17
2019-03-23T09:34:22.477Z,25.00
2019-03-23T09:35:27.842Z,25.13
2019-03-23T09:36:33.253Z,24.73
2019-03-23T09:37:38.581Z,25.03
2019-03-23T09:38:43.997Z,24.37
2019-03-23T09:39:54.971Z,24.10
2019-03-23T09:41:02.676Z,24.60
2019-03-23T09:42:09.321Z,24.10
2019-03-23T09:43:14.978Z,23.77
2019-03-23T09:44:20.274Z,23.43
2019-03-23T09:45:25.670Z,23.87
2019-03-23T09:46:31.006Z,24.93
2019-03-23T09:47:36.419Z,24.57
2019-03-23T09:48:41.807Z,23.50
2019-03-23T09:49:47.205Z,24.13
2019-03-23T09:50:52.494Z,24.33
2019-03-23T09:51:58.118Z,24.63
2019-03-23T09:53:03.565Z,24.63
2019-03-23T09:54:08.919Z,25.40
2019-03-23T09:55:14.278Z,25.03
2019-03-23T09:56:19.661Z,24.33
2019-03-23T09:57:24.947Z,24.17
2019-03-23T09:58:30.324Z,22.63
2019-03-23T09:59:35.702Z,24.90
2019-03-23T10:00:41.108Z,25.80
2019-03-23T10:01:46.427Z,26.00
2019-03-23T10:02:51.783Z,24.63
2019-03-23T10:03:57.113Z,26.03
2019-03-23T10:05:03.537Z,24.53
2019-03-23T10:06:08.857Z,23.77
2019-03-23T10:07:14.113Z,24.23
2019-03-23T10:08:19.441Z,23.73
2019-03-23T10:09:24.902Z,24.77
2019-03-23T10:10:30.181Z,22.57
2019-03-23T10:11:35.425Z,23.23
2019-03-23T10:12:40.881Z,24.37
2019-03-23T10:13:46.277Z,24.13
2019-03-23T10:14:51.656Z,23.87
2019-03-23T10:15:57.068Z,23.07
2019-03-23T10:17:02.454Z,23.57
2019-03-23T10:18:07.808Z,22.30
2019-03-23T10:19:13.157Z,23.10
2019-03-23T10:20:18.519Z,22.50
2019-03-23T10:21:23.871Z,22.90
2019-03-23T10:22:29.180Z,21.83
2019-03-23T10:23:34.569Z,21.50
2019-03-23T10:24:39.956Z,21.53
2019-03-23T10:25:45.439Z,20.93
2019-03-23T10:26:52.259Z,20.83
2019-03-23T10:27:57.880Z,20.67
2019-03-23T10:29:03.305Z,19.67
2019-03-23T10:30:09.415Z,19.97
2019-03-23T10:31:14.941Z,20.40
2019-03-23T10:32:20.512Z,20.80
2019-03-23T10:33:26.036Z,20.63
2019-03-23T10:34:31.435Z,19.97
2019-03-23T10:35:37.242Z,19.43
2019-03-23T10:36:42.751Z,21.03
2019-03-23T10:37:48.375Z,19.97
2019-03-23T10:38:53.909Z,20.40
2019-03-23T10:39:59.389Z,19.23
2019-03-23T10:41:05.073Z,19.83
2019-03-23T10:42:10.550Z,20.50
2019-03-23T10:43:16.155Z,20.30
2019-03-23T10:44:21.629Z,19.97
2019-03-23T10:45:27.061Z,19.50
2019-03-23T10:46:32.623Z,19.07
2019-03-23T10:47:38.349Z,19.27
2019-03-23T10:48:43.967Z,18.07
2019-03-23T10:49:49.665Z,18.23
2019-03-23T10:50:55.166Z,19.67
2019-03-23T10:52:00.577Z,17.97
2019-03-23T10:53:06.306Z,19.43
2019-03-23T10:54:12.226Z,20.33
2019-03-23T10:55:17.812Z,19.00
2019-03-23T10:56:23.271Z,18.77
2019-03-23T10:57:28.820Z,18.07
2019-03-23T10:58:37.501Z,17.93
2019-03-23T10:59:43.305Z,18.27
2019-03-23T11:00:48.936Z,17.47
2019-03-23T11:01:54.468Z,16.83
2019-03-23T11:02:59.958Z,16.90
2019-03-23T11:04:05.626Z,18.33
2019-03-23T11:05:12.722Z,18.17
2019-03-23T11:06:18.220Z,18.03
2019-03-23T11:07:23.783Z,18.07
2019-03-23T11:08:29.260Z,18.63
2019-03-23T11:09:34.668Z,18.07
2019-03-23T11:10:41.976Z,17.23
2019-03-23T11:11:47.470Z,16.73
2019-03-23T11:12:52.956Z,17.70
2019-03-23T11:13:58.468Z,16.50
2019-03-23T11:15:03.783Z,16.30
2019-03-23T11:16:09.341Z,15.67
2019-03-23T11:17:15.360Z,16.87
2019-03-23T11:18:21.322Z,16.67
2019-03-23T11:19:27.294Z,16.63
2019-03-23T11:20:32.748Z,16.03
2019-03-23T11:21:38.192Z,16.70
2019-03-23T11:22:43.801Z,16.13
2019-03-23T11:23:49.312Z,16.33
2019-03-23T11:24:54.703Z,15.03
2019-03-23T11:26:00.301Z,15.00
2019-03-23T11:27:05.954Z,15.60
2019-03-23T11:28:11.376Z,15.57
2019-03-23T11:29:18.039Z,15.63
2019-03-23T11:30:24.154Z,15.17
2019-03-23T11:31:31.022Z,15.33
2019-03-23T11:32:36.902Z,14.93
2019-03-23T11:33:42.649Z,15.47
2019-03-23T11:34:48.280Z,17.33
2019-03-23T11:36:00.197Z,16.70
2019-03-23T11:37:06.091Z,17.03
2019-03-23T11:38:11.934Z,17.37
2019-03-23T11:39:17.489Z,17.53
2019-03-23T11:40:23.125Z,18.83
2019-03-23T11:41:28.645Z,17.53
2019-03-23T11:42:34.203Z,17.70
2019-03-23T11:43:40.325Z,16.70
2019-03-23T11:44:46.292Z,18.27
2019-03-23T11:45:52.041Z,17.23
2019-03-23T11:46:57.643Z,16.97
2019-03-23T11:48:03.298Z,19.97
2019-03-23T11:49:09.008Z,19.33
2019-03-23T11:50:15.244Z,17.13
2019-03-23T11:51:20.797Z,17.77
2019-03-23T11:52:26.299Z,19.40
2019-03-23T11:53:31.853Z,21.03
2019-03-23T11:54:37.524Z,19.20
2019-03-23T11:55:43.028Z,17.90
2019-03-23T11:56:51.360Z,18.17
2019-03-23T11:57:57.169Z,18.57
2019-03-23T11:59:02.613Z,19.67
2019-03-23T12:00:08.739Z,20.47
2019-03-23T12:01:14.190Z,18.30
2019-03-23T12:02:19.939Z,18.03
2019-03-23T12:03:25.551Z,17.57
2019-03-23T12:04:31.298Z,18.20
2019-03-23T12:05:38.017Z,17.80
2019-03-23T12:06:43.696Z,18.83
2019-03-23T12:07:49.382Z,18.27
2019-03-23T12:08:55.301Z,18.53
2019-03-23T12:10:00.947Z,18.03
2019-03-23T12:11:06.472Z,17.93
2019-03-23T12:12:12.453Z,18.10
2019-03-23T12:13:18.287Z,17.80
2019-03-23T12:14:23.955Z,18.50
2019-03-23T12:15:29.913Z,17.60
2019-03-23T12:16:35.996Z,18.00
2019-03-23T12:17:48.873Z,20.73
2019-03-23T12:18:53.477Z,18.47
2019-03-23T12:19:58.829Z,19.63
2019-03-23T12:21:04.906Z,19.00
2019-03-23T12:22:11.104Z,19.27
2019-03-23T12:23:16.537Z,21.63
2019-03-23T12:24:22.264Z,19.47
2019-03-23T12:25:27.748Z,20.03
2019-03-23T12:26:33.068Z,20.40
2019-03-23T12:27:38.400Z,20.67
2019-03-23T12:28:44.376Z,20.83
2019-03-23T12:29:50.212Z,19.40
2019-03-23T12:30:55.878Z,18.63
2019-03-23T12:32:01.330Z,20.37
2019-03-23T12:33:06.882Z,19.37
2019-03-23T12:34:12.642Z,19.53
2019-03-23T12:35:18.288Z,20.30
2019-03-23T12:36:23.839Z,20.07
2019-03-23T12:37:29.279Z,20.30
2019-03-23T12:38:34.976Z,19.40
2019-03-23T12:39:40.525Z,19.30
2019-03-23T12:40:46.095Z,20.07
2019-03-23T12:41:51.696Z,19.23
2019-03-23T12:42:57.088Z,19.33
2019-03-23T12:44:02.532Z,20.33
2019-03-23T12:45:08.334Z,19.43
2019-03-23T12:46:13.769Z,19.87
2019-03-23T12:47:22.134Z,20.17
2019-03-23T12:48:27.506Z,19.27
2019-03-23T12:49:33.053Z,18.83
2019-03-23T12:50:38.557Z,20.23
2019-03-23T12:51:44.203Z,19.30
2019-03-23T12:52:49.688Z,19.37
2019-03-23T12:53:55.446Z,20.50
2019-03-23T12:55:00.929Z,19.70
2019-03-23T12:56:06.773Z,19.37
2019-03-23T12:57:12.320Z,19.80
2019-03-23T12:58:17.936Z,20.23
2019-03-23T12:59:23.446Z,20.33
2019-03-23T13:00:28.855Z,19.73
2019-03-23T13:01:34.292Z,19.47
2019-03-23T13:02:39.759Z,18.77
2019-03-23T13:03:45.248Z,19.63
2019-03-23T13:04:50.803Z,20.13
2019-03-23T13:05:56.356Z,18.40
2019-03-23T13:07:01.952Z,19.30
2019-03-23T13:08:07.400Z,20.17
2019-03-23T13:09:12.831Z,18.10
2019-03-23T13:10:18.408Z,19.00
2019-03-23T13:11:31.116Z,20.20
2019-03-23T13:12:30.845Z,19.93
2019-03-23T13:13:36.408Z,19.97
2019-03-23T13:14:41.840Z,19.67
2019-03-23T13:15:47.304Z,20.73
2019-03-23T13:16:52.765Z,18.87
2019-03-23T13:17:58.247Z,19.90
2019-03-23T13:19:03.696Z,18.63
2019-03-23T13:20:11.399Z,19.70
2019-03-23T13:21:17.038Z,19.60
2019-03-23T13:22:22.587Z,19.23
2019-03-23T13:23:28.284Z,19.57
2019-03-23T13:24:36.211Z,19.53
2019-03-23T13:25:41.736Z,20.57
2019-03-23T13:26:47.229Z,19.73
2019-03-23T13:27:52.803Z,18.50
2019-03-23T13:28:58.445Z,19.13
2019-03-23T13:30:03.890Z,22.40
2019-03-23T13:31:09.385Z,19.60
2019-03-23T13:32:14.964Z,18.67
2019-03-23T13:33:20.416Z,19.57
2019-03-23T13:34:25.921Z,20.93
2019-03-23T13:35:31.483Z,20.90
2019-03-23T13:36:36.933Z,19.90
2019-03-23T13:37:42.526Z,20.67
2019-03-23T13:38:47.938Z,20.83
2019-03-23T13:39:53.482Z,19.87
2019-03-23T13:40:58.962Z,20.47
2019-03-23T13:42:04.493Z,19.80
2019-03-23T13:43:10.000Z,19.97
2019-03-23T13:44:15.728Z,20.53
2019-03-23T13:45:21.191Z,19.97
2019-03-23T13:46:26.613Z,21.87
2019-03-23T13:47:32.214Z,20.73
2019-03-23T13:48:37.678Z,19.67
2019-03-23T13:49:43.165Z,20.97
2019-03-23T13:50:48.643Z,20.80
2019-03-23T13:51:54.123Z,20.60
2019-03-23T13:52:59.544Z,21.30
2019-03-23T13:54:05.127Z,21.60
2019-03-23T13:55:18.401Z,25.53
2019-03-23T13:56:23.888Z,29.90
2019-03-23T13:57:29.284Z,31.93
2019-03-23T13:58:34.782Z,31.20
2019-03-23T13:59:40.320Z,32.43
2019-03-23T14:00:45.812Z,34.00
2019-03-23T14:01:51.720Z,33.63
2019-03-23T14:02:57.177Z,36.03
2019-03-23T14:04:02.603Z,34.47
2019-03-23T14:05:15.681Z,34.40
2019-03-23T14:06:15.662Z,41.03